Time;durP1;ratioP1;P1;durP2;ratioP2;P2;SDS_P1;SDS_P2;PMS_P1;PMS_P2;Temp;Humidity;BMP_temperature;BMP_pressure;BME280_temperature;BME280_humidity;BME280_pressure;Samples;Min_cycle;Max_cycle;Signal;HPM_P1;HPM_P2
2021/07/23 05:01:02;;;;;;;;;;;;;;;26.90;39.34;100022.72;1857143;77;20146;-65
2021/07/23 05:03:33;;;;;;;;;;;;;;;26.99;39.13;100020.27;1823838;78;20113;-67
2021/07/23 05:06:00;;;;;;;;;;;;;;;27.16;38.48;100027.52;1827881;78;20971;-67
2021/07/23 05:08:27;;;;;;;;;;;;;;;27.16;38.15;100023.50;1815553;78;20161;-70
2021/07/23 05:10:54;;;;;;;;;;;;;;;27.09;38.33;100012.75;1810814;78;20105;-72
2021/07/23 05:13:21;;;;;;;;;;;;;;;27.17;38.80;100019.81;1826826;78;20089;-69
2021/07/23 05:15:48;;;;;;;;;;;;;;;27.41;38.27;100018.53;1822972;78;20102;-72
2021/07/23 05:18:15;;;;;;;;;;;;;;;27.68;37.60;100020.88;1824837;78;21103;-71
2021/07/23 05:20:42;;;;;;;;;;;;;;;27.95;36.77;100024.54;1821582;78;20105;-72
2021/07/23 05:23:09;;;;;;;;;;;;;;;28.10;36.37;100022.52;1816945;78;20406;-72
2021/07/23 05:25:36;;;;;;;;;;;;;;;28.29;36.10;100028.52;1820661;78;20140;-87
2021/07/23 05:28:03;;;;;;;;;;;;;;;28.43;35.73;100019.98;1815248;78;20206;-73
2021/07/23 05:30:30;;;;;;;;;;;;;;;28.66;34.99;100019.12;1818505;78;21101;-72
2021/07/23 05:32:58;;;;;;;;;;;;;;;28.91;34.74;100019.38;1816357;78;20156;-67
2021/07/23 05:35:25;;;;;;;;;;;;;;;29.07;34.43;100018.97;1826229;78;20179;-69
2021/07/23 05:37:51;;;;;;;;;;;;;;;29.28;34.23;100014.41;1815254;78;20360;-72
2021/07/23 05:40:18;;;;;;;;;;;;;;;29.53;33.55;100020.81;1826418;78;20132;-70
2021/07/23 05:42:45;;;;;;;;;;;;;;;29.72;32.99;100021.27;1807290;78;21490;-69
2021/07/23 05:45:12;;;;;;;;;;;;;;;29.91;33.03;100022.77;1817175;78;20128;-69
2021/07/23 05:47:39;;;;;;;;;;;;;;;30.15;32.79;100026.92;1809710;78;20118;-70
2021/07/23 05:50:06;;;;;;;;;;;;;;;30.44;32.46;100026.05;1808378;78;20447;-67
2021/07/23 05:52:33;;;;;;;;;;;;;;;30.66;32.26;100024.72;1815184;78;20176;-68
2021/07/23 05:55:00;;;;;;;;;;;;;;;30.79;31.37;100017.88;1813191;78;21268;-68
2021/07/23 05:57:26;;;;;;;;;;;;;;;30.91;31.16;100014.50;1820295;78;20470;-68
2021/07/23 05:59:53;;;;;;;;;;;;;;;30.95;30.74;100015.19;1780942;80;20139;-69
2021/07/23 06:02:21;;;;;;;;;;;;;;;30.99;30.74;100020.95;1737384;82;20170;-66
2021/07/23 06:04:48;;;;;;;;;;;;;;;31.04;30.93;100021.13;1746493;82;20151;-67
2021/07/23 06:07:15;;;;;;;;;;;;;;;31.16;30.64;100017.53;1760471;80;21513;-68
2021/07/23 06:09:44;;;;;;;;;;;;;;;31.20;30.10;100019.76;1757566;80;20087;-68
2021/07/23 06:12:14;;;;;;;;;;;;;;;31.02;28.94;100026.72;1763467;80;20099;-69
2021/07/23 06:14:41;;;;;;;;;;;;;;;30.61;29.10;100028.57;1765854;80;20097;-67
2021/07/23 06:17:08;;;;;;;;;;;;;;;30.12;30.87;100024.66;1740857;82;20122;-70
2021/07/23 06:19:37;;;;;;;;;;;;;;;30.11;31.40;100027.56;1762715;80;21110;-68
2021/07/23 06:22:04;;;;;;;;;;;;;;;30.31;31.45;100020.25;1757524;81;20386;-67
2021/07/23 06:24:32;;;;;;;;;;;;;;;30.57;31.42;100021.16;1761046;81;20098;-69
2021/07/23 06:26:58;;;;;;;;;;;;;;;30.87;31.37;100015.45;1750446;81;20149;-70
2021/07/23 06:29:25;;;;;;;;;;;;;;;31.16;30.93;100012.16;1745935;81;20440;-70
2021/07/23 06:32:01;;;;;;;;;;;;;;;31.39;30.48;100011.52;1750224;81;21719;-69
2021/07/23 06:34:28;;;;;;;;;;;;;;;31.60;29.54;100015.62;1753614;81;20239;-66
2021/07/23 06:36:56;;;;;;;;;;;;;;;31.71;29.77;100016.27;1750358;81;20165;-66
2021/07/23 06:39:23;;;;;;;;;;;;;;;31.86;29.83;100015.08;1761643;81;20117;-69
2021/07/23 06:41:49;;;;;;;;;;;;;;;31.95;29.22;100017.25;1754914;81;20148;-69
2021/07/23 06:44:19;;;;;;;;;;;;;;;32.04;28.67;100022.61;1756384;81;20116;-69
2021/07/23 06:46:48;;;;;;;;;;;;;;;32.06;28.51;100021.03;1757623;81;20090;-70
2021/07/23 06:49:14;;;;;;;;;;;;;;;32.10;27.88;100020.88;1746300;81;20154;-70
2021/07/23 06:51:41;;;;;;;;;;;;;;;32.03;27.39;100026.34;1737534;81;20136;-68
2021/07/23 06:54:08;;;;;;;;;;;;;;;31.95;27.30;100019.13;1754121;81;20110;-69
2021/07/23 06:56:36;;;;;;;;;;;;;;;31.98;27.27;100019.50;1760922;81;21285;-67
2021/07/23 06:59:04;;;;;;;;;;;;;;;32.03;27.31;100014.75;1744884;81;20519;-71
2021/07/23 07:01:31;;;;;;;;;;;;;;;32.07;27.33;100015.95;1750191;81;20147;-68
2021/07/23 07:03:58;;;;;;;;;;;;;;;32.08;26.99;100014.89;1745972;81;20157;-68
2021/07/23 07:06:25;;;;;;;;;;;;;;;32.03;26.71;100008.02;1756228;81;20145;-64
2021/07/23 07:08:53;;;;;;;;;;;;;;;31.99;27.21;100006.85;1754832;81;21201;-68
2021/07/23 07:11:20;;;;;;;;;;;;;;;31.88;26.95;100011.64;1750677;81;20468;-67
2021/07/23 07:13:47;;;;;;;;;;;;;;;31.85;27.11;100010.22;1756331;80;20154;-65
2021/07/23 07:16:14;;;;;;;;;;;;;;;31.93;26.66;100008.58;1745952;81;20369;-64
2021/07/23 07:18:42;;;;;;;;;;;;;;;31.96;26.49;100012.16;1751872;81;20114;-70
2021/07/23 07:21:09;;;;;;;;;;;;;;;32.00;26.50;100004.42;1749046;81;21146;-70
2021/07/23 07:23:35;;;;;;;;;;;;;;;32.05;26.20;100004.05;1744762;81;20264;-68
2021/07/23 07:26:02;;;;;;;;;;;;;;;32.07;26.52;100008.69;1782232;80;20110;-64
2021/07/23 07:28:30;;;;;;;;;;;;;;;32.00;26.33;100005.77;1738419;82;20411;-69
2021/07/23 07:30:58;;;;;;;;;;;;;;;31.90;26.20;100006.85;1750052;80;20235;-65
2021/07/23 07:33:24;;;;;;;;;;;;;;;31.87;26.05;100004.61;1747566;82;21147;-68
2021/07/23 07:35:53;;;;;;;;;;;;;;;31.87;26.01;99998.70;1774903;80;20472;-65
2021/07/23 07:38:20;;;;;;;;;;;;;;;31.88;25.78;100003.04;1753615;82;20417;-67
2021/07/23 07:40:46;;;;;;;;;;;;;;;31.78;26.33;99999.52;1766566;80;20127;-66
2021/07/23 07:43:13;;;;;;;;;;;;;;;31.81;26.39;99999.07;1763063;80;20072;-67
2021/07/23 07:45:41;;;;;;;;;;;;;;;31.85;26.76;100008.05;1754347;80;21099;-68
2021/07/23 07:48:08;;;;;;;;;;;;;;;31.83;25.85;100006.41;1776858;80;21304;-65
2021/07/23 07:50:35;;;;;;;;;;;;;;;31.80;25.84;100006.03;1781459;80;20175;-73
2021/07/23 07:53:12;;;;;;;;;;;;;;;31.69;26.14;99996.83;1775232;80;20339;-69
2021/07/23 07:55:39;;;;;;;;;;;;;;;31.72;26.31;99996.90;1784020;80;20112;-72
2021/07/23 07:58:05;;;;;;;;;;;;;;;31.83;26.21;100002.37;1778987;80;21083;-71
2021/07/23 08:00:32;;;;;;;;;;;;;;;31.85;25.83;100006.70;1762646;80;20671;-70
2021/07/23 08:02:59;;;;;;;;;;;;;;;31.88;25.88;100000.88;1761556;80;20073;-67
2021/07/23 08:05:26;;;;;;;;;;;;;;;31.91;25.81;100007.16;1783159;80;20433;-65
2021/07/23 08:07:58;;;;;;;;;;;;;;;31.86;26.11;100003.78;1751023;81;20128;-66
2021/07/23 08:10:25;;;;;;;;;;;;;;;31.81;26.10;100005.80;1755036;81;21295;-66
2021/07/23 08:12:53;;;;;;;;;;;;;;;31.74;26.77;100001.02;1746524;81;20156;-65
2021/07/23 08:15:21;;;;;;;;;;;;;;;31.77;26.20;100007.83;1738500;82;20153;-65
2021/07/23 08:17:48;;;;;;;;;;;;;;;31.52;26.51;100005.70;1750052;81;20212;-65
2021/07/23 08:20:15;;;;;;;;;;;;;;;31.39;26.87;100006.13;1741387;82;20096;-66
2021/07/23 08:22:42;;;;;;;;;;;;;;;31.42;27.14;100007.03;1734790;81;22350;-67
2021/07/23 08:25:10;;;;;;;;;;;;;;;31.46;26.90;100000.69;1754347;81;20460;-66
2021/07/23 08:27:37;;;;;;;;;;;;;;;31.50;26.88;100002.71;1758345;80;20087;-69
2021/07/23 08:30:06;;;;;;;;;;;;;;;31.59;26.41;100001.88;1748900;82;21217;-69
2021/07/23 08:32:36;;;;;;;;;;;;;;;31.52;26.68;100000.32;1743438;82;20082;-64
2021/07/23 08:35:01;;;;;;;;;;;;;;;31.37;26.76;100004.19;1759662;81;21008;-66
2021/07/23 08:37:29;;;;;;;;;;;;;;;31.16;27.11;100008.64;1748697;82;20158;-65
2021/07/23 08:39:55;;;;;;;;;;;;;;;30.99;27.39;100006.98;1750834;81;20524;-66
2021/07/23 08:42:24;;;;;;;;;;;;;;;30.92;27.52;100000.83;1753696;81;20118;-67
2021/07/23 08:44:53;;;;;;;;;;;;;;;30.87;27.55;100002.01;1761802;81;20453;-68
2021/07/23 08:47:20;;;;;;;;;;;;;;;30.82;27.79;100008.56;1753384;80;21733;-65
2021/07/23 08:49:49;;;;;;;;;;;;;;;30.78;27.91;99999.31;1746061;82;20383;-65
2021/07/23 08:52:16;;;;;;;;;;;;;;;30.79;27.75;100000.95;1740409;81;20131;-67
2021/07/23 08:54:44;;;;;;;;;;;;;;;30.76;27.63;100004.91;1721444;82;20177;-65
2021/07/23 08:57:11;;;;;;;;;;;;;;;30.72;28.10;99998.31;1761545;80;20204;-65
2021/07/23 08:59:39;;;;;;;;;;;;;;;30.71;28.40;100007.94;1783331;80;21059;-68
2021/07/23 09:02:06;;;;;;;;;;;;;;;30.73;27.64;100004.00;1788485;80;20149;-68
2021/07/23 09:04:36;;;;;;;;;;;;;;;30.54;27.88;100002.22;1782035;80;20443;-64
2021/07/23 09:07:22;;;;;;;;;;;;;;;30.39;28.00;100000.37;1789018;80;20188;-66
2021/07/23 09:09:57;;;;;;;;;;;;;;;30.32;28.43;100003.61;1787846;80;20072;-70
2021/07/23 09:12:26;;;;;;;;;;;;;;;30.27;28.61;99998.05;1787059;80;21518;-67
2021/07/23 09:14:53;;;;;;;;;;;;;;;30.12;28.28;99996.98;1778437;80;20123;-68
2021/07/23 09:17:19;;;;;;;;;;;;;;;29.85;28.83;100001.11;1788391;80;20118;-64
2021/07/23 09:20:02;;;;;;;;;;;;;;;29.61;28.91;99993.73;1785133;80;21155;-66
2021/07/23 09:22:57;;;;;;;;;;;;;;;29.29;29.21;99994.09;1783601;80;20128;-67
2021/07/23 09:25:43;;;;;;;;;;;;;;;28.92;29.96;99988.85;1784458;80;21493;-66
2021/07/23 09:28:24;;;;;;;;;;;;;;;28.74;30.60;99993.47;1785100;80;20094;-66
2021/07/23 09:30:52;;;;;;;;;;;;;;;28.63;30.68;99992.73;1750475;81;21224;-66
2021/07/23 09:33:32;;;;;;;;;;;;;;;28.42;30.73;99988.86;1755089;81;20087;-66
2021/07/23 09:36:02;;;;;;;;;;;;;;;28.28;30.96;99986.69;1735204;82;20143;-66
2021/07/23 09:38:42;;;;;;;;;;;;;;;28.20;31.66;99983.64;1752325;82;20675;-65
2021/07/23 09:41:25;;;;;;;;;;;;;;;28.13;30.96;99978.78;1739588;82;20177;-66
2021/07/23 09:44:05;;;;;;;;;;;;;;;28.03;31.46;99980.17;1721650;82;20130;-70
2021/07/23 09:46:48;;;;;;;;;;;;;;;27.97;31.73;99979.66;1773920;80;20086;-66
2021/07/23 09:49:28;;;;;;;;;;;;;;;27.91;31.73;99975.93;1770229;80;20116;-69
2021/07/23 09:52:05;;;;;;;;;;;;;;;27.87;32.30;99972.00;1754641;82;21777;-67
2021/07/23 09:54:39;;;;;;;;;;;;;;;27.87;32.50;99966.14;1763322;81;20077;-69
2021/07/23 09:57:13;;;;;;;;;;;;;;;27.86;32.59;99968.50;1712372;81;20398;-68
2021/07/23 10:00:02;;;;;;;;;;;;;;;27.84;32.62;99961.18;1748124;81;20131;-65
2021/07/23 10:02:36;;;;;;;;;;;;;;;27.77;32.79;99960.83;1746538;81;20099;-66
2021/07/23 10:05:07;;;;;;;;;;;;;;;27.59;33.24;99955.20;1728369;83;21129;-66
2021/07/23 10:07:48;;;;;;;;;;;;;;;27.52;33.66;99963.16;1727093;83;20114;-64
2021/07/23 10:10:18;;;;;;;;;;;;;;;27.49;33.50;99959.03;1728586;83;20095;-66
2021/07/23 10:12:47;;;;;;;;;;;;;;;27.41;33.33;99953.02;1728392;83;20162;-65
2021/07/23 10:15:18;;;;;;;;;;;;;;;27.29;33.89;99955.40;1728488;83;20091;-65
2021/07/23 10:17:47;;;;;;;;;;;;;;;27.20;33.75;99953.38;1728965;83;21768;-65
2021/07/23 10:20:19;;;;;;;;;;;;;;;27.17;33.82;99945.78;1728316;83;20075;-64
2021/07/23 10:22:57;;;;;;;;;;;;;;;27.14;33.81;99944.84;1721432;83;20122;-66
2021/07/23 10:25:26;;;;;;;;;;;;;;;27.08;34.19;99940.27;1728264;83;20094;-65
2021/07/23 10:28:03;;;;;;;;;;;;;;;27.04;34.36;99946.20;1703611;81;20168;-64
2021/07/23 10:30:37;;;;;;;;;;;;;;;26.96;34.62;99939.66;1729037;81;21103;-64
2021/07/23 10:33:09;;;;;;;;;;;;;;;26.91;34.93;99937.02;1761014;81;20133;-65
2021/07/23 10:35:38;;;;;;;;;;;;;;;26.89;35.29;99939.56;1761965;81;20408;-64
2021/07/23 10:38:05;;;;;;;;;;;;;;;26.89;35.50;99938.23;1728673;81;20082;-65
2021/07/23 10:40:40;;;;;;;;;;;;;;;26.85;35.41;99939.13;1761619;81;20173;-65
2021/07/23 10:43:39;;;;;;;;;;;;;;;26.88;35.43;99936.06;1761218;81;21762;-64
2021/07/23 10:46:08;;;;;;;;;;;;;;;26.86;35.57;99934.09;1761663;81;20073;-64
2021/07/23 10:48:52;;;;;;;;;;;;;;;26.82;35.32;99943.52;1753989;81;20199;-65
2021/07/23 10:51:51;;;;;;;;;;;;;;;26.73;35.31;99934.02;1749644;81;20361;-65
2021/07/23 10:54:21;;;;;;;;;;;;;;;26.72;35.47;99928.86;1760087;81;20445;-63
2021/07/23 10:57:02;;;;;;;;;;;;;;;26.71;35.46;99929.38;1750088;81;21220;-63
2021/07/23 10:59:42;;;;;;;;;;;;;;;26.65;35.83;99930.65;1759196;81;20131;-64
2021/07/23 11:02:18;;;;;;;;;;;;;;;26.68;36.25;99927.59;1753637;81;20413;-64
2021/07/23 11:04:50;;;;;;;;;;;;;;;26.71;36.20;99924.03;1736920;82;20170;-71
2021/07/23 11:07:25;;;;;;;;;;;;;;;26.68;36.70;99924.41;1735341;82;20173;-69
2021/07/23 11:09:55;;;;;;;;;;;;;;;26.67;35.98;99928.61;1727815;81;21908;-66
2021/07/23 11:12:33;;;;;;;;;;;;;;;26.57;35.53;99925.75;1750388;81;20133;-65
2021/07/23 11:15:03;;;;;;;;;;;;;;;26.45;36.17;99922.45;1749392;81;20098;-65
2021/07/23 11:17:32;;;;;;;;;;;;;;;26.43;35.86;99915.95;1753381;80;20136;-67
2021/07/23 11:20:03;;;;;;;;;;;;;;;26.46;36.25;99913.42;1773472;80;20085;-67
2021/07/23 11:22:33;;;;;;;;;;;;;;;26.39;36.12;99914.69;1758772;80;21048;-65
2021/07/23 11:25:06;;;;;;;;;;;;;;;26.29;36.54;99922.69;1768413;80;20815;-68
2021/07/23 11:27:44;;;;;;;;;;;;;;;26.18;36.40;99914.66;1767122;80;20096;-65
2021/07/23 11:30:20;;;;;;;;;;;;;;;26.09;37.08;99908.62;1763769;80;20167;-64
2021/07/23 11:32:54;;;;;;;;;;;;;;;26.13;36.73;99905.06;1721811;82;20118;-71
2021/07/23 11:35:25;;;;;;;;;;;;;;;26.13;37.21;99909.06;1749812;81;21067;-69
2021/07/23 11:38:01;;;;;;;;;;;;;;;26.12;37.05;99907.41;1747984;81;20110;-68
2021/07/23 11:40:34;;;;;;;;;;;;;;;26.17;37.34;99909.83;1757347;81;20094;-70
2021/07/23 11:43:05;;;;;;;;;;;;;;;26.26;37.45;99902.53;1744221;81;20409;-69
2021/07/23 11:45:35;;;;;;;;;;;;;;;26.34;37.09;99897.11;1729424;82;20115;-76
2021/07/23 11:48:16;;;;;;;;;;;;;;;26.41;36.99;99899.81;1750621;81;21130;-65
2021/07/23 11:51:00;;;;;;;;;;;;;;;26.46;37.12;99898.22;1723413;81;20588;-77
2021/07/23 11:53:29;;;;;;;;;;;;;;;26.49;37.07;99899.69;1750981;81;20249;-73
2021/07/23 11:56:02;;;;;;;;;;;;;;;26.54;37.07;99890.08;1754634;81;20117;-70
2021/07/23 11:58:30;;;;;;;;;;;;;;;26.61;37.34;99889.31;1763328;81;20654;-74
2021/07/23 12:00:57;;;;;;;;;;;;;;;26.68;37.06;99899.03;1718123;81;21753;-73
2021/07/23 12:03:27;;;;;;;;;;;;;;;26.75;36.71;99890.57;1755754;81;20410;-71
2021/07/23 12:05:55;;;;;;;;;;;;;;;26.79;36.98;99883.79;1745123;81;20391;-72
2021/07/23 12:08:24;;;;;;;;;;;;;;;26.86;37.05;99886.52;1758382;81;20374;-70
2021/07/23 12:10:56;;;;;;;;;;;;;;;26.93;36.29;99882.05;1751846;81;20386;-73
2021/07/23 12:13:33;;;;;;;;;;;;;;;26.98;36.29;99876.15;1749046;81;20650;-68
2021/07/23 12:16:03;;;;;;;;;;;;;;;26.97;36.76;99882.00;1752320;81;20142;-71
2021/07/23 12:18:35;;;;;;;;;;;;;;;27.03;36.32;99874.55;1750914;81;20437;-68
2021/07/23 12:21:10;;;;;;;;;;;;;;;27.11;36.20;99868.22;1762363;81;20417;-70
2021/07/23 12:23:40;;;;;;;;;;;;;;;27.21;35.67;99872.67;1710283;81;20389;-67
2021/07/23 12:26:07;;;;;;;;;;;;;;;27.31;35.41;99874.99;1722395;81;21216;-67
2021/07/23 12:28:53;;;;;;;;;;;;;;;27.38;34.20;99875.34;1717251;81;20102;-68
2021/07/23 12:31:23;;;;;;;;;;;;;;;27.33;34.23;99867.59;1745976;81;20099;-65
2021/07/23 12:34:12;;;;;;;;;;;;;;;27.28;34.87;99865.52;1746710;81;20145;-68
2021/07/23 12:36:43;;;;;;;;;;;;;;;27.20;35.30;99864.34;1754270;81;20477;-68
2021/07/23 12:39:13;;;;;;;;;;;;;;;27.17;35.28;99866.92;1746281;81;21150;-67
2021/07/23 12:41:42;;;;;;;;;;;;;;;27.19;35.39;99862.72;1716921;81;20103;-66
2021/07/23 12:44:15;;;;;;;;;;;;;;;27.25;35.24;99851.20;1755781;81;20118;-67
2021/07/23 12:46:51;;;;;;;;;;;;;;;27.33;35.48;99855.56;1746869;81;20121;-68
2021/07/23 12:49:25;;;;;;;;;;;;;;;27.43;35.22;99850.17;1754607;81;20098;-66
2021/07/23 12:52:03;;;;;;;;;;;;;;;27.58;35.17;99853.22;1765270;81;22063;-65
2021/07/23 12:54:43;;;;;;;;;;;;;;;27.71;34.41;99850.59;1755202;81;20166;-68
2021/07/23 12:57:24;;;;;;;;;;;;;;;27.81;34.31;99851.05;1763081;81;20436;-66
2021/07/23 12:59:54;;;;;;;;;;;;;;;27.92;34.47;99846.95;1749197;81;20118;-65
2021/07/23 13:02:21;;;;;;;;;;;;;;;28.00;33.95;99848.08;1723054;82;20083;-67
2021/07/23 13:04:57;;;;;;;;;;;;;;;28.03;33.83;99850.34;1758117;81;21154;-67
2021/07/23 13:07:29;;;;;;;;;;;;;;;27.98;33.46;99850.16;1744554;81;20447;-70
2021/07/23 13:09:58;;;;;;;;;;;;;;;27.89;34.05;99845.51;1770602;81;20131;-71
2021/07/23 13:12:29;;;;;;;;;;;;;;;27.92;34.40;99846.95;1736582;81;20225;-70
2021/07/23 13:15:01;;;;;;;;;;;;;;;28.01;34.36;99841.70;1759666;81;20460;-74
2021/07/23 13:17:31;;;;;;;;;;;;;;;28.05;34.07;99837.59;1765256;81;21130;-69
2021/07/23 13:20:03;;;;;;;;;;;;;;;28.01;33.30;99844.38;1771008;81;20090;-72
2021/07/23 13:22:32;;;;;;;;;;;;;;;27.93;33.55;99839.23;1760992;81;20081;-68
2021/07/23 13:25:07;;;;;;;;;;;;;;;27.84;33.58;99838.08;1743874;81;20413;-71
2021/07/23 13:27:37;;;;;;;;;;;;;;;27.69;34.03;99837.42;1770961;81;20420;-72
2021/07/23 13:30:09;;;;;;;;;;;;;;;27.57;34.74;99839.02;1749666;81;20541;-70
2021/07/23 13:32:37;;;;;;;;;;;;;;;27.55;34.71;99833.87;1743929;81;20516;-72
2021/07/23 13:35:06;;;;;;;;;;;;;;;27.61;34.82;99846.13;1765405;81;20480;-64
2021/07/23 13:37:36;;;;;;;;;;;;;;;27.66;34.96;99844.51;1768803;81;20084;-66
2021/07/23 13:40:09;;;;;;;;;;;;;;;27.72;34.77;99841.03;1768890;80;20435;-66
2021/07/23 13:42:46;;;;;;;;;;;;;;;27.74;34.42;99846.18;1750787;81;21085;-72
2021/07/23 13:45:18;;;;;;;;;;;;;;;27.76;34.38;99842.79;1769235;81;20082;-67
2021/07/23 13:47:50;;;;;;;;;;;;;;;27.79;34.20;99846.41;1756701;81;20095;-65
2021/07/23 13:50:22;;;;;;;;;;;;;;;27.81;34.26;99843.02;1729161;81;20140;-67
2021/07/23 13:52:50;;;;;;;;;;;;;;;27.85;34.14;99841.07;1761991;81;20111;-67
2021/07/23 13:55:20;;;;;;;;;;;;;;;27.88;33.75;99835.31;1770055;81;21121;-65
2021/07/23 13:57:48;;;;;;;;;;;;;;;27.92;34.05;99839.75;1761659;81;20094;-66
2021/07/23 14:00:21;;;;;;;;;;;;;;;27.95;34.20;99842.02;1765159;81;20109;-67
